Alpine, UT

9:43 PM MDT on July 04, 2015 (GMT -0600)
Mountainville | | Change Station
CLOSE
Current Station
Personal Weather Station
Location: Alpine, UT
Elevation: 5033 ft
Nearby Weather Stations

Elev 5033 ft 40.46 °N, 111.77 °W | Updated 4 seconds ago

Mostly Cloudy
Mostly Cloudy
75.8 °F
Feels Like 78 °F
N
0.0
Wind Variable Wind from NW
Gusts 1.0 mph

Today
High -- | Low -- °F
--% Chance of Precip.
Yesterday
High -- | Low -- °F
Precip. -- in
6:01 AM 9:00 PM
Waning Gibbous, 88% visible
Pressure 29.97 in
Visibility 10.0 miles
Clouds Scattered Clouds 12000 ft
Heat Index 78 °F
Dew Point 52 °F
Humidity 43%
Rainfall 0.00 in
Snow Depth Not available.
UV 0 out of 12
Pollen 6.60 out of 12
Air Quality Not available.
Flu Activity Not available.
METAR KU42 050335Z AUTO 00000KT 10SM SCT120 27/10 A2997 RMK AO1 T02660100

More Conditions Fewer Conditions

Pressure 29.97 in
Visibility 10.0 miles
Clouds Scattered Clouds 12000 ft
Heat Index 78 °F
Dew Point 52 °F
Humidity 43%
Rainfall 0.00 in
Snow Depth Not available.
UV 0 out of 12
Pollen 6.60 out of 12
Air Quality Not available.
Flu Activity Not available.
METAR KU42 050335Z AUTO 00000KT 10SM SCT120 27/10 A2997 RMK AO1 T02660100

More Conditions Fewer Conditions

10-Day Weather Forecast

×

Almanac

Astronomy

Jul. 04, 2015 Rise Set
Actual Time
Civil Twilight
Nautical Twilight
Astronomical Twilight
Moon
Length of Visible Light
Length of Day
Tomorrow will be .
, % of the Moon is Illuminated

Today's Extremes

State Highs State Lows

Community

WunderPhotos

Upload Photos

1,835,193 photos uploaded!

WunderBlogs® & News

Nearby

Air Quality

  Air Quality AQ Index Pollutant
Not available.

Snow Depth

Station Depth Elevation

Earthquake Activity

City Distance Mag. Time & Date
Minimum magnitude displayed is 2.5.

Coastal Water Temperatures

Place Temperature

Stations

Nearby Weather Stations

Station Location Temp. Windchill Dew Point Humidity Wind Precip. Elev Updated Type